createdAt,value
2023-05-24T04:48:27.071Z,99.90
2023-05-24T04:53:28.962Z,99.90
2023-05-24T04:58:30.816Z,99.90
2023-05-24T05:03:32.744Z,99.90
2023-05-24T05:08:34.660Z,99.90
2023-05-24T05:13:36.549Z,99.90
2023-05-24T05:18:38.407Z,99.90
2023-05-24T05:23:40.396Z,99.90
2023-05-24T05:28:42.567Z,99.90
2023-05-24T05:33:44.533Z,99.90
2023-05-24T05:38:46.739Z,99.90
2023-05-24T05:43:48.640Z,99.90
2023-05-24T05:48:50.632Z,99.90
2023-05-24T05:53:52.677Z,99.90
2023-05-24T05:58:54.725Z,99.90
2023-05-24T06:03:56.715Z,99.90
2023-05-24T06:08:59.671Z,99.90
2023-05-24T06:14:02.671Z,99.90
2023-05-24T06:19:06.665Z,99.90
2023-05-24T06:24:09.823Z,99.90
2023-05-24T06:29:11.777Z,99.90
2023-05-24T06:34:17.033Z,99.90
2023-05-24T06:39:19.263Z,99.90
2023-05-24T06:44:25.219Z,99.90
2023-05-24T06:49:27.572Z,99.90
2023-05-24T06:54:29.383Z,99.90
2023-05-24T06:59:31.569Z,99.90
2023-05-24T07:04:33.506Z,99.90
2023-05-24T07:09:35.824Z,99.90
2023-05-24T07:14:37.757Z,99.90
2023-05-24T07:19:39.702Z,99.90
2023-05-24T07:24:41.642Z,99.90
2023-05-24T07:29:44.345Z,99.90
2023-05-24T07:34:47.969Z,99.90
2023-05-24T07:39:50.760Z,99.90
2023-05-24T07:44:52.656Z,99.90
2023-05-24T07:49:54.824Z,99.90
2023-05-24T07:54:56.868Z,99.90
2023-05-24T07:59:58.783Z,99.90
2023-05-24T08:05:00.907Z,99.90
2023-05-24T08:10:03.444Z,99.90
2023-05-24T08:15:06.589Z,99.90
2023-05-24T08:20:10.074Z,99.90
2023-05-24T08:25:12.191Z,99.90
2023-05-24T08:30:14.688Z,99.90
2023-05-24T08:35:21.043Z,99.90
2023-05-24T08:40:25.055Z,99.90
2023-05-24T08:45:30.214Z,99.90
2023-05-24T08:50:32.751Z,99.90
2023-05-24T08:55:35.358Z,99.90
2023-05-24T09:00:37.307Z,99.90
2023-05-24T09:05:41.766Z,99.90
2023-05-24T09:10:53.887Z,99.90
2023-05-24T09:15:59.140Z,99.90
2023-05-24T09:21:01.262Z,99.90
2023-05-24T09:26:10.206Z,99.90
2023-05-24T09:31:13.821Z,99.90
2023-05-24T09:36:17.430Z,99.90
2023-05-24T09:41:20.610Z,99.90
2023-05-24T09:46:23.087Z,99.00
2023-05-24T09:51:25.509Z,95.40
2023-05-24T09:56:27.629Z,96.60
2023-05-24T10:01:31.954Z,97.90
2023-05-24T10:06:37.579Z,93.70
2023-05-24T10:11:40.278Z,96.80
2023-05-24T10:16:42.517Z,92.80
2023-05-24T10:21:45.063Z,90.10
2023-05-24T10:26:48.864Z,85.20
2023-05-24T10:31:51.700Z,87.20
2023-05-24T10:36:53.604Z,83.70
2023-05-24T10:42:03.001Z,85.80
2023-05-24T10:47:12.387Z,85.80
2023-05-24T10:52:14.344Z,88.00
2023-05-24T10:57:23.119Z,82.50
2023-05-24T11:02:28.479Z,75.80
2023-05-24T11:07:34.489Z,79.70
2023-05-24T11:12:38.968Z,80.60
2023-05-24T11:18:15.136Z,77.70
2023-05-24T11:23:18.006Z,75.40
2023-05-24T11:28:22.135Z,78.00
2023-05-24T11:33:24.594Z,78.10
2023-05-24T11:38:29.559Z,76.80
2023-05-24T11:43:31.747Z,78.10
2023-05-24T11:48:35.063Z,81.50
2023-05-24T11:53:37.830Z,79.00
2023-05-24T11:58:50.456Z,77.70
2023-05-24T12:03:55.473Z,79.60
2023-05-24T12:09:00.681Z,81.20
2023-05-24T12:14:02.811Z,79.40
2023-05-24T12:19:11.608Z,78.50
2023-05-24T12:24:17.660Z,78.50
2023-05-24T12:29:19.904Z,78.00
2023-05-24T12:34:22.558Z,80.20
2023-05-24T12:39:32.219Z,79.70
2023-05-24T12:44:35.790Z,80.60
2023-05-24T12:49:37.838Z,80.30
2023-05-24T12:54:39.749Z,81.80
2023-05-24T12:59:41.971Z,83.20
2023-05-24T13:04:43.978Z,78.40
2023-05-24T13:09:45.944Z,80.40
2023-05-24T13:14:49.129Z,79.70
2023-05-24T13:19:52.472Z,74.10
2023-05-24T13:24:54.398Z,72.00
2023-05-24T13:35:01.293Z,71.50
2023-05-24T13:40:04.327Z,69.20
2023-05-24T13:45:06.896Z,67.40
2023-05-24T13:50:09.317Z,68.10
2023-05-24T13:55:11.265Z,68.40
2023-05-24T14:00:14.534Z,69.50
2023-05-24T14:10:22.114Z,72.60
2023-05-24T14:15:24.149Z,71.50
2023-05-24T14:20:26.384Z,73.70
2023-05-24T14:25:28.376Z,74.80
2023-05-24T14:30:33.499Z,75.70
2023-05-24T14:35:39.924Z,74.00
2023-05-24T14:40:42.467Z,72.50
2023-05-24T14:45:44.721Z,72.60
2023-05-24T14:50:47.393Z,73.20
2023-05-24T14:55:49.790Z,73.70
2023-05-24T15:00:52.335Z,74.10
2023-05-24T15:05:54.351Z,74.30
2023-05-24T15:10:58.646Z,72.80
2023-05-24T15:16:01.339Z,72.70
2023-05-24T15:21:03.523Z,69.40
2023-05-24T15:26:09.309Z,72.30
2023-05-24T15:31:11.616Z,70.20
2023-05-24T15:36:17.114Z,70.40
2023-05-24T15:41:19.330Z,70.40
2023-05-24T15:46:27.421Z,72.50
2023-05-24T15:52:00.955Z,70.90
2023-05-24T15:56:51.845Z,70.50
2023-05-24T16:01:55.123Z,69.30
2023-05-24T16:06:57.359Z,67.80
2023-05-24T16:12:01.000Z,66.70
2023-05-24T16:17:05.588Z,65.40
2023-05-24T16:22:08.366Z,65.20
2023-05-24T16:27:16.266Z,65.70
2023-05-24T16:32:18.338Z,67.60
2023-05-24T16:37:20.435Z,67.90
2023-05-24T16:42:24.579Z,66.90
2023-05-24T16:48:12.080Z,67.90
2023-05-24T16:53:14.357Z,68.60
2023-05-24T16:58:16.787Z,70.40
2023-05-24T17:03:22.129Z,71.20
2023-05-24T17:08:25.939Z,70.90
2023-05-24T17:13:27.979Z,69.50
2023-05-24T17:18:30.117Z,70.20
2023-05-24T17:23:34.606Z,70.50
2023-05-24T17:28:36.651Z,72.20
2023-05-24T17:33:41.058Z,72.60
2023-05-24T17:38:43.000Z,67.00
2023-05-24T17:43:45.010Z,68.00
2023-05-24T17:48:47.973Z,69.60
2023-05-24T17:53:50.392Z,70.90
2023-05-24T17:58:52.282Z,72.90
2023-05-24T18:03:54.491Z,76.10
2023-05-24T18:08:59.961Z,78.20
2023-05-24T18:14:03.962Z,79.30
2023-05-24T18:19:07.089Z,80.90
2023-05-24T18:24:08.991Z,83.30
2023-05-24T18:29:11.039Z,83.90
2023-05-24T18:34:13.705Z,85.30
2023-05-24T18:39:16.243Z,86.40
2023-05-24T18:44:18.167Z,88.30
2023-05-24T18:49:21.431Z,90.40
2023-05-24T18:54:25.414Z,90.80
2023-05-24T18:59:29.634Z,91.30
2023-05-24T19:04:32.338Z,92.30
2023-05-24T19:09:34.749Z,92.80
2023-05-24T19:14:37.509Z,93.00
2023-05-24T19:19:39.549Z,93.10
2023-05-24T19:24:41.785Z,93.70
2023-05-24T19:29:44.122Z,94.10
2023-05-24T19:34:46.471Z,94.50
2023-05-24T19:39:48.899Z,95.70
